createdAt,value
2023-05-10T00:00:56.525Z,96917.59
2023-05-10T00:03:23.614Z,96921.78
2023-05-10T00:05:50.544Z,96915.97
2023-05-10T00:08:17.087Z,96918.75
2023-05-10T00:10:44.030Z,96922.59
2023-05-10T00:13:10.666Z,96925.97
2023-05-10T00:15:37.308Z,96929.00
2023-05-10T00:18:03.927Z,96936.84
2023-05-10T00:20:30.884Z,96933.09
2023-05-10T00:22:57.450Z,96924.41
2023-05-10T00:25:24.166Z,96924.53
2023-05-10T00:27:50.917Z,96930.69
2023-05-10T00:30:18.142Z,96929.44
2023-05-10T00:32:45.081Z,96919.78
2023-05-10T00:35:12.041Z,96924.22
2023-05-10T00:37:38.744Z,96919.94
2023-05-10T00:40:06.579Z,96923.59
2023-05-10T00:42:33.144Z,96926.63
2023-05-10T00:44:59.964Z,96924.06
2023-05-10T00:47:26.815Z,96920.34
2023-05-10T00:49:53.499Z,96918.84
2023-05-10T00:52:20.784Z,96913.91
2023-05-10T00:54:48.787Z,96915.47
2023-05-10T00:57:16.168Z,96908.41
2023-05-10T00:59:42.823Z,96918.53
2023-05-10T01:02:09.638Z,96907.19
2023-05-10T01:04:36.830Z,96918.22
2023-05-10T01:07:03.440Z,96914.38
2023-05-10T01:09:30.181Z,96919.41
2023-05-10T01:11:57.714Z,96912.84
2023-05-10T01:14:24.553Z,96917.28
2023-05-10T01:16:51.321Z,96917.00
2023-05-10T01:19:25.930Z,96917.75
2023-05-10T01:22:17.538Z,96909.66
2023-05-10T01:24:50.019Z,96919.78
2023-05-10T01:27:26.957Z,96913.94
2023-05-10T01:30:16.803Z,96909.19
2023-05-10T01:32:56.628Z,96920.69
2023-05-10T01:35:42.951Z,96912.56
2023-05-10T01:38:43.832Z,96905.38
2023-05-10T01:41:22.343Z,96913.34
2023-05-10T01:44:07.358Z,96911.34
2023-05-10T01:46:39.523Z,96907.84
2023-05-10T01:49:16.988Z,96909.34
2023-05-10T01:51:48.268Z,96913.47
2023-05-10T01:54:18.367Z,96909.97
2023-05-10T01:56:47.823Z,96915.78
2023-05-10T01:59:18.752Z,96923.28
2023-05-10T02:01:47.256Z,96919.47
2023-05-10T02:04:18.003Z,96922.66
2023-05-10T02:06:46.247Z,96921.41
2023-05-10T02:09:14.165Z,96921.72
2023-05-10T02:11:44.246Z,96923.72
2023-05-10T02:14:12.886Z,96919.75
2023-05-10T02:16:42.816Z,96920.66
2023-05-10T02:19:11.698Z,96916.09
2023-05-10T02:21:41.138Z,96924.97
2023-05-10T02:24:09.842Z,96919.47
2023-05-10T02:26:37.603Z,96913.78
2023-05-10T02:29:06.593Z,96924.69
2023-05-10T02:31:34.555Z,96924.34
2023-05-10T02:34:02.622Z,96928.34
2023-05-10T02:36:30.839Z,96923.88
2023-05-10T02:38:59.949Z,96926.50
2023-05-10T02:41:28.839Z,96923.13
2023-05-10T02:44:00.994Z,96927.88
2023-05-10T02:46:27.649Z,96923.44
2023-05-10T02:48:54.339Z,96918.09
2023-05-10T02:51:25.827Z,96927.72
2023-05-10T02:53:56.463Z,96918.22
2023-05-10T02:56:37.663Z,96924.03
2023-05-10T02:59:04.254Z,96924.34
2023-05-10T03:01:30.836Z,96927.72
2023-05-10T03:03:57.470Z,96927.09
2023-05-10T03:06:24.440Z,96936.25
2023-05-10T03:08:51.235Z,96930.59
2023-05-10T03:11:23.815Z,96937.34
2023-05-10T03:14:04.059Z,96932.59
2023-05-10T03:16:44.181Z,96933.06
2023-05-10T03:19:34.241Z,96936.13
2023-05-10T03:22:06.587Z,96936.84
2023-05-10T03:24:37.858Z,96937.13
2023-05-10T03:27:05.560Z,96932.84
2023-05-10T03:29:33.326Z,96943.09
2023-05-10T03:32:00.725Z,96934.38
2023-05-10T03:34:27.423Z,96933.75
2023-05-10T03:36:53.999Z,96948.13
2023-05-10T03:39:22.429Z,96950.38
2023-05-10T03:41:49.058Z,96956.16
2023-05-10T03:44:15.696Z,96956.47
2023-05-10T03:46:42.260Z,96955.94
2023-05-10T03:49:08.808Z,96957.19
2023-05-10T03:51:36.092Z,96964.56
2023-05-10T03:54:02.585Z,96968.09
2023-05-10T03:56:29.426Z,96968.38
2023-05-10T03:58:56.257Z,96963.50
2023-05-10T04:01:24.731Z,96975.25
2023-05-10T04:03:51.470Z,96969.88
2023-05-10T04:06:18.159Z,96959.94
2023-05-10T04:08:44.732Z,96961.97
2023-05-10T04:11:13.562Z,96968.38
2023-05-10T04:13:40.130Z,96969.66
2023-05-10T04:16:06.946Z,96968.97
2023-05-10T04:18:33.682Z,96969.13
2023-05-10T04:21:00.253Z,96977.34
2023-05-10T04:23:28.132Z,96972.50
2023-05-10T04:26:00.783Z,96977.22
2023-05-10T04:28:28.407Z,96985.91
2023-05-10T04:31:02.159Z,96986.81
2023-05-10T04:33:28.832Z,96983.66
2023-05-10T04:35:55.393Z,96988.84
2023-05-10T04:38:21.960Z,96988.34
2023-05-10T04:40:48.830Z,96990.66
2023-05-10T04:43:15.452Z,96989.97
2023-05-10T04:45:42.341Z,96987.38
2023-05-10T04:48:10.942Z,96992.56
2023-05-10T04:50:38.244Z,96997.47
2023-05-10T04:53:04.855Z,96993.94
2023-05-10T04:55:31.465Z,97007.50
2023-05-10T04:57:58.461Z,96999.25
2023-05-10T05:00:25.879Z,97014.22
2023-05-10T05:02:52.782Z,97008.06
2023-05-10T05:05:19.524Z,97016.09
2023-05-10T05:07:46.065Z,97008.13
2023-05-10T05:10:12.628Z,97012.41
2023-05-10T05:12:39.198Z,97020.97
2023-05-10T05:15:07.291Z,97014.31
2023-05-10T05:17:35.870Z,97004.31
2023-05-10T05:20:02.825Z,97005.84
2023-05-10T05:22:29.557Z,97005.19
2023-05-10T05:24:57.518Z,97017.94
2023-05-10T05:27:25.818Z,97017.84
2023-05-10T05:29:57.540Z,97021.47
2023-05-10T05:32:25.334Z,97026.31
2023-05-10T05:34:52.736Z,97031.16
2023-05-10T05:37:22.095Z,97034.22
2023-05-10T05:39:48.753Z,97017.09
2023-05-10T05:42:17.549Z,97034.56
2023-05-10T05:44:44.363Z,97032.84
2023-05-10T05:47:11.722Z,97033.06
2023-05-10T05:49:38.301Z,97042.16
2023-05-10T05:52:05.474Z,97036.41
2023-05-10T05:54:32.760Z,97048.03
2023-05-10T05:57:01.420Z,97041.47
2023-05-10T05:59:28.492Z,97043.38
2023-05-10T06:01:55.349Z,97045.53
2023-05-10T06:04:22.565Z,97050.28
2023-05-10T06:06:49.678Z,97053.84
2023-05-10T06:09:16.303Z,97058.44
2023-05-10T06:11:43.223Z,97049.34
2023-05-10T06:14:10.417Z,97060.16
2023-05-10T06:16:36.993Z,97067.00
2023-05-10T06:19:04.173Z,97077.69
2023-05-10T06:21:31.199Z,97070.09
2023-05-10T06:23:58.139Z,97078.00
2023-05-10T06:26:24.755Z,97075.72
2023-05-10T06:28:51.371Z,97091.09
2023-05-10T06:31:18.303Z,97086.50
2023-05-10T06:33:44.930Z,97081.25
2023-05-10T06:36:11.554Z,97084.97
2023-05-10T06:38:38.413Z,97069.84
2023-05-10T06:41:05.009Z,97087.22
2023-05-10T06:43:31.560Z,97075.19
2023-05-10T06:45:58.903Z,97078.28
2023-05-10T06:48:25.494Z,97070.78
2023-05-10T06:50:52.082Z,97071.88
2023-05-10T06:53:18.839Z,97079.97
2023-05-10T06:55:45.590Z,97073.91
2023-05-10T06:58:12.362Z,97068.25
2023-05-10T07:00:41.757Z,97074.28
2023-05-10T07:03:08.504Z,97073.50
2023-05-10T07:05:35.476Z,97081.66
2023-05-10T07:08:02.311Z,97080.22
2023-05-10T07:10:29.181Z,97077.97
2023-05-10T07:12:56.283Z,97084.00
2023-05-10T07:15:23.099Z,97072.88
2023-05-10T07:17:49.831Z,97073.13
2023-05-10T07:20:16.623Z,97058.94
2023-05-10T07:22:43.163Z,97075.63
2023-05-10T07:25:09.991Z,97082.09
2023-05-10T07:27:36.533Z,97077.91
2023-05-10T07:30:03.723Z,97082.84
2023-05-10T07:32:30.381Z,97077.50
2023-05-10T07:34:57.221Z,97085.31
2023-05-10T07:37:24.032Z,97081.63
2023-05-10T07:39:50.609Z,97086.06
2023-05-10T07:42:17.184Z,97085.97
2023-05-10T07:44:44.429Z,97087.25
2023-05-10T07:47:10.987Z,97085.53
2023-05-10T07:49:37.527Z,97094.56
2023-05-10T07:52:04.637Z,97090.13
2023-05-10T07:54:31.826Z,97097.22
2023-05-10T07:56:58.494Z,97090.31
2023-05-10T07:59:25.050Z,97099.34
2023-05-10T08:01:51.640Z,97091.13
2023-05-10T08:04:18.360Z,97084.97
2023-05-10T08:06:44.997Z,97089.91
2023-05-10T08:09:12.246Z,97086.38
2023-05-10T08:11:38.971Z,97089.09
2023-05-10T08:14:05.570Z,97083.47
2023-05-10T08:16:33.541Z,97095.59
2023-05-10T08:19:00.321Z,97086.38
2023-05-10T08:21:28.359Z,97094.94
2023-05-10T08:23:54.997Z,97094.69
2023-05-10T08:26:22.818Z,97105.13
2023-05-10T08:28:49.560Z,97103.00
2023-05-10T08:31:16.660Z,97107.03
2023-05-10T08:33:44.582Z,97102.63
2023-05-10T08:36:11.493Z,97099.38
2023-05-10T08:38:38.985Z,97104.28
2023-05-10T08:41:06.544Z,97097.88
2023-05-10T08:43:33.434Z,97096.03
2023-05-10T08:46:04.130Z,97099.72
2023-05-10T08:48:32.122Z,97102.19
2023-05-10T08:51:01.372Z,97111.34
2023-05-10T08:53:31.246Z,97105.78
2023-05-10T08:55:58.432Z,97106.50
2023-05-10T08:58:25.061Z,97096.44
2023-05-10T09:00:52.640Z,97107.59
2023-05-10T09:03:19.419Z,97104.97
2023-05-10T09:05:46.310Z,97107.50
2023-05-10T09:08:14.053Z,97111.59
2023-05-10T09:10:43.557Z,97104.84
2023-05-10T09:13:11.770Z,97098.22
2023-05-10T09:15:39.323Z,97109.63
2023-05-10T09:18:06.196Z,97102.00
2023-05-10T09:20:32.893Z,97107.78
2023-05-10T09:22:59.588Z,97102.69
2023-05-10T09:25:26.205Z,97110.94
2023-05-10T09:27:53.215Z,97111.16
2023-05-10T09:30:32.852Z,97101.09
2023-05-10T09:33:01.485Z,97106.84
2023-05-10T09:35:30.485Z,97111.44
2023-05-10T09:38:00.379Z,97110.03
2023-05-10T09:40:28.801Z,97108.00
2023-05-10T09:42:59.968Z,97107.59
2023-05-10T09:45:29.469Z,97105.59
2023-05-10T09:47:56.677Z,97095.53
2023-05-10T09:50:24.520Z,97110.13
2023-05-10T09:52:59.536Z,97105.09
2023-05-10T09:55:46.051Z,97102.53
2023-05-10T09:58:15.244Z,97105.97
2023-05-10T10:00:44.472Z,97100.25
2023-05-10T10:03:19.687Z,97107.69
2023-05-10T10:05:47.783Z,97100.63
2023-05-10T10:08:15.733Z,97100.06
2023-05-10T10:10:42.698Z,97089.50
2023-05-10T10:13:09.625Z,97088.28
2023-05-10T10:15:37.304Z,97080.66
2023-05-10T10:18:06.003Z,97085.97
2023-05-10T10:20:33.247Z,97096.16
2023-05-10T10:22:59.940Z,97099.59
2023-05-10T10:25:26.753Z,97089.34
2023-05-10T10:27:53.326Z,97091.59
2023-05-10T10:30:43.760Z,97091.97
2023-05-10T10:33:31.050Z,97092.50
2023-05-10T10:36:01.181Z,97083.94
2023-05-10T10:38:49.122Z,97091.19
2023-05-10T10:41:31.944Z,97089.19
2023-05-10T10:44:23.623Z,97085.50
2023-05-10T10:47:15.443Z,97089.06
2023-05-10T10:49:42.103Z,97089.63
2023-05-10T10:52:16.473Z,97088.78
2023-05-10T10:54:50.879Z,97095.06
2023-05-10T10:57:20.387Z,97091.47
2023-05-10T10:59:47.581Z,97082.59
2023-05-10T11:02:42.896Z,97093.16
2023-05-10T11:05:34.692Z,97098.81
2023-05-10T11:08:10.700Z,97090.69
2023-05-10T11:10:37.623Z,97090.88
2023-05-10T11:13:05.481Z,97084.84
2023-05-10T11:15:36.276Z,97095.28
2023-05-10T11:18:24.278Z,97092.47
2023-05-10T11:20:59.103Z,97104.03
2023-05-10T11:23:31.451Z,97105.38
2023-05-10T11:25:58.163Z,97109.66
2023-05-10T11:28:25.085Z,97099.72
2023-05-10T11:30:53.393Z,97113.25
2023-05-10T11:33:21.004Z,97109.22
2023-05-10T11:35:47.922Z,97109.38
2023-05-10T11:38:15.313Z,97106.63
2023-05-10T11:40:42.455Z,97119.97
2023-05-10T11:43:11.180Z,97106.47
2023-05-10T11:45:38.237Z,97102.47
2023-05-10T11:48:05.401Z,97104.00
2023-05-10T11:50:33.606Z,97109.53
2023-05-10T11:53:00.453Z,97110.78
2023-05-10T11:55:27.247Z,97107.06
2023-05-10T11:57:55.870Z,97102.84
2023-05-10T12:00:22.864Z,97101.84
2023-05-10T12:02:50.190Z,97097.56
2023-05-10T12:05:17.532Z,97091.78
2023-05-10T12:07:44.446Z,97096.81
2023-05-10T12:10:16.420Z,97104.94
2023-05-10T12:12:49.173Z,97100.00
2023-05-10T12:15:21.503Z,97099.38
2023-05-10T12:17:48.807Z,97098.44
2023-05-10T12:20:21.142Z,97093.69
2023-05-10T12:22:52.571Z,97092.59
2023-05-10T12:25:20.096Z,97087.03
2023-05-10T12:27:57.500Z,97091.22
2023-05-10T12:30:26.009Z,97100.03
2023-05-10T12:32:53.343Z,97101.56
2023-05-10T12:35:25.147Z,97110.06
2023-05-10T12:37:52.302Z,97107.72
2023-05-10T12:40:19.120Z,97114.31
2023-05-10T12:42:47.564Z,97108.97
2023-05-10T12:45:15.078Z,97113.38
2023-05-10T12:47:43.890Z,97111.22
2023-05-10T12:50:11.486Z,97124.78
2023-05-10T12:52:38.288Z,97123.31
2023-05-10T12:55:05.220Z,97111.13
2023-05-10T12:57:31.894Z,97117.13
2023-05-10T12:59:58.483Z,97113.34
2023-05-10T13:02:25.213Z,97119.13
2023-05-10T13:04:51.903Z,97123.97
2023-05-10T13:07:18.635Z,97120.56
2023-05-10T13:09:45.638Z,97130.34
2023-05-10T13:12:12.278Z,97141.81
2023-05-10T13:14:39.137Z,97158.88
2023-05-10T13:17:06.020Z,97169.31
2023-05-10T13:19:32.647Z,97172.72
2023-05-10T13:21:59.241Z,97172.72
2023-05-10T13:24:26.027Z,97167.50
2023-05-10T13:26:52.762Z,97174.84
2023-05-10T13:29:20.330Z,97167.44
2023-05-10T13:31:47.002Z,97172.06
2023-05-10T13:34:13.864Z,97178.81
2023-05-10T13:36:40.575Z,97186.31
2023-05-10T13:39:07.250Z,97190.88
2023-05-10T13:41:34.191Z,97192.72
2023-05-10T13:44:00.841Z,97201.88
2023-05-10T13:46:27.510Z,97198.72
2023-05-10T13:48:54.164Z,97199.72
2023-05-10T13:51:21.312Z,97199.72
2023-05-10T13:53:48.287Z,97210.28
2023-05-10T13:56:16.077Z,97234.38
2023-05-10T13:58:42.716Z,97233.28
2023-05-10T14:01:09.577Z,97234.50
2023-05-10T14:03:36.713Z,97235.00
2023-05-10T14:06:03.641Z,97228.09
2023-05-10T14:08:31.548Z,97220.75
2023-05-10T14:10:58.197Z,97214.69
2023-05-10T14:13:25.104Z,97211.72
2023-05-10T14:15:52.400Z,97216.53
2023-05-10T14:18:19.189Z,97222.69
2023-05-10T14:20:45.814Z,97222.03
2023-05-10T14:23:12.781Z,97221.53
2023-05-10T14:25:42.398Z,97226.81
2023-05-10T14:28:09.215Z,97234.84
2023-05-10T14:30:35.792Z,97232.47
2023-05-10T14:33:03.449Z,97237.31
2023-05-10T14:35:32.189Z,97242.59
2023-05-10T14:37:59.689Z,97237.69
2023-05-10T14:40:26.285Z,97236.94
2023-05-10T14:42:54.302Z,97224.38
2023-05-10T14:45:22.102Z,97230.41
2023-05-10T14:47:48.788Z,97228.09
2023-05-10T14:50:24.983Z,97230.13
2023-05-10T14:53:02.166Z,97211.03
2023-05-10T14:55:28.793Z,97210.16
2023-05-10T14:57:55.688Z,97198.09
2023-05-10T15:00:22.712Z,97201.91
2023-05-10T15:02:49.894Z,97186.88
2023-05-10T15:05:17.355Z,97186.66
2023-05-10T15:07:44.953Z,97201.34
2023-05-10T15:10:12.459Z,97197.75
2023-05-10T15:12:39.371Z,97199.28
2023-05-10T15:15:07.337Z,97200.53
2023-05-10T15:17:34.567Z,97206.97
2023-05-10T15:20:03.462Z,97210.69
2023-05-10T15:22:34.308Z,97203.00
2023-05-10T15:25:01.117Z,97204.91
2023-05-10T15:27:27.671Z,97201.22
2023-05-10T15:29:54.421Z,97208.88
2023-05-10T15:32:21.160Z,97206.75
2023-05-10T15:34:47.770Z,97195.81
2023-05-10T15:37:14.337Z,97215.34
2023-05-10T15:39:41.033Z,97199.81
2023-05-10T15:42:07.706Z,97214.56
2023-05-10T15:44:36.149Z,97221.88
2023-05-10T15:47:03.942Z,97213.97
2023-05-10T15:49:30.721Z,97214.38
2023-05-10T15:51:57.414Z,97204.16
2023-05-10T15:54:24.006Z,97192.00
2023-05-10T15:56:50.629Z,97205.94
2023-05-10T15:59:18.249Z,97204.28
2023-05-10T16:01:44.890Z,97200.44
2023-05-10T16:04:11.829Z,97218.63
2023-05-10T16:06:38.628Z,97220.41
2023-05-10T16:09:05.224Z,97227.84
2023-05-10T16:11:31.853Z,97223.59
2023-05-10T16:13:58.463Z,97231.53
2023-05-10T16:16:25.200Z,97232.06
2023-05-10T16:18:53.080Z,97236.53
2023-05-10T16:21:19.847Z,97244.06
2023-05-10T16:23:46.797Z,97242.53
2023-05-10T16:26:13.436Z,97248.06
2023-05-10T16:28:41.088Z,97246.84
2023-05-10T16:31:07.906Z,97251.03
2023-05-10T16:33:34.693Z,97255.03
2023-05-10T16:36:01.235Z,97265.22
2023-05-10T16:38:27.802Z,97267.34
2023-05-10T16:40:57.650Z,97269.22
2023-05-10T16:43:26.040Z,97270.88
2023-05-10T16:45:52.898Z,97277.78
2023-05-10T16:48:19.600Z,97281.88
2023-05-10T16:50:46.146Z,97280.22
2023-05-10T16:53:13.541Z,97277.78
2023-05-10T16:55:40.127Z,97275.59
2023-05-10T16:58:07.157Z,97278.03
2023-05-10T17:00:33.846Z,97288.66
2023-05-10T17:03:00.876Z,97292.50
2023-05-10T17:05:27.629Z,97288.78
2023-05-10T17:07:54.849Z,97291.41
2023-05-10T17:10:21.924Z,97291.97
2023-05-10T17:12:48.620Z,97290.31
2023-05-10T17:15:16.831Z,97296.34
2023-05-10T17:17:43.806Z,97295.81
2023-05-10T17:20:10.864Z,97299.97
2023-05-10T17:22:37.397Z,97298.88
2023-05-10T17:25:04.475Z,97312.44
2023-05-10T17:27:31.728Z,97318.69
2023-05-10T17:29:59.369Z,97314.50
2023-05-10T17:32:26.100Z,97321.13
2023-05-10T17:34:52.736Z,97326.25
2023-05-10T17:37:19.577Z,97326.94
2023-05-10T17:39:46.621Z,97322.66
2023-05-10T17:42:13.883Z,97323.75
2023-05-10T17:44:40.645Z,97318.78
2023-05-10T17:47:07.249Z,97323.47
2023-05-10T17:49:33.975Z,97332.25
2023-05-10T17:52:00.606Z,97334.16
2023-05-10T17:54:27.467Z,97335.56
2023-05-10T17:56:54.055Z,97351.00
2023-05-10T17:59:21.548Z,97359.72
2023-05-10T18:01:48.169Z,97356.56
2023-05-10T18:04:14.882Z,97354.34
2023-05-10T18:06:42.028Z,97359.78
2023-05-10T18:09:08.696Z,97357.81
2023-05-10T18:11:36.567Z,97362.31
2023-05-10T18:14:03.407Z,97361.00
2023-05-10T18:16:30.226Z,97362.59
2023-05-10T18:18:58.161Z,97360.16
2023-05-10T18:21:25.051Z,97356.66
2023-05-10T18:23:51.660Z,97358.56
2023-05-10T18:26:18.518Z,97362.25
2023-05-10T18:28:45.130Z,97367.16
2023-05-10T18:31:12.808Z,97362.53
2023-05-10T18:33:39.841Z,97369.38
2023-05-10T18:36:07.089Z,97371.22
2023-05-10T18:38:33.860Z,97367.38
2023-05-10T18:41:00.508Z,97380.19
2023-05-10T18:43:27.239Z,97371.56
2023-05-10T18:45:53.800Z,97366.28
2023-05-10T18:48:20.371Z,97373.22
2023-05-10T18:50:46.953Z,97373.06
2023-05-10T18:53:14.250Z,97374.44
2023-05-10T18:55:40.878Z,97375.31
2023-05-10T18:58:07.494Z,97373.59
2023-05-10T19:00:34.084Z,97375.81
2023-05-10T19:03:02.970Z,97377.72
2023-05-10T19:05:31.731Z,97383.03
2023-05-10T19:07:58.356Z,97394.69
2023-05-10T19:10:25.001Z,97392.47
2023-05-10T19:12:51.579Z,97390.72
2023-05-10T19:15:20.170Z,97400.94
2023-05-10T19:17:48.327Z,97400.06
2023-05-10T19:20:17.690Z,97406.34
2023-05-10T19:23:02.293Z,97398.75
2023-05-10T19:25:34.823Z,97401.66
2023-05-10T19:28:01.569Z,97409.97
2023-05-10T19:30:28.853Z,97409.28
2023-05-10T19:32:56.059Z,97411.44
2023-05-10T19:35:23.982Z,97405.00
2023-05-10T19:37:50.669Z,97414.28
2023-05-10T19:40:17.616Z,97415.28
2023-05-10T19:42:44.239Z,97419.50
2023-05-10T19:45:11.628Z,97421.13
2023-05-10T19:47:38.357Z,97421.25
2023-05-10T19:50:06.367Z,97418.84
2023-05-10T19:52:32.979Z,97419.19
2023-05-10T19:54:59.701Z,97419.19
2023-05-10T19:57:26.390Z,97417.75
2023-05-10T19:59:53.153Z,97419.19
2023-05-10T20:02:19.744Z,97417.75
2023-05-10T20:04:46.623Z,97415.84
2023-05-10T20:07:13.179Z,97416.44
2023-05-10T20:09:39.825Z,97417.13
2023-05-10T20:12:06.417Z,97411.66
2023-05-10T20:14:33.316Z,97423.53
2023-05-10T20:17:00.010Z,97428.78
2023-05-10T20:19:26.639Z,97418.91
2023-05-10T20:21:56.019Z,97430.38
2023-05-10T20:24:22.592Z,97427.06
2023-05-10T20:26:49.179Z,97426.38
2023-05-10T20:29:16.009Z,97426.84
2023-05-10T20:31:42.756Z,97429.97
2023-05-10T20:34:09.325Z,97433.97
2023-05-10T20:36:35.901Z,97436.38
2023-05-10T20:39:02.453Z,97438.06
2023-05-10T20:41:29.243Z,97439.63
2023-05-10T20:43:55.833Z,97438.44
2023-05-10T20:46:23.317Z,97431.66
2023-05-10T20:48:49.910Z,97434.41
2023-05-10T20:51:16.487Z,97438.41
2023-05-10T20:53:43.238Z,97445.25
2023-05-10T20:56:09.977Z,97446.44
2023-05-10T20:58:40.349Z,97437.22
2023-05-10T21:01:06.997Z,97429.34
2023-05-10T21:03:33.621Z,97435.59
2023-05-10T21:06:00.297Z,97428.44
2023-05-10T21:08:26.900Z,97425.56
2023-05-10T21:10:54.943Z,97427.53
2023-05-10T21:13:21.584Z,97426.25
2023-05-10T21:15:48.198Z,97433.75
2023-05-10T21:18:14.879Z,97430.81
2023-05-10T21:20:41.495Z,97426.84
2023-05-10T21:23:08.132Z,97418.22
2023-05-10T21:25:34.908Z,97424.50
2023-05-10T21:28:01.598Z,97422.00
2023-05-10T21:30:28.391Z,97420.53
2023-05-10T21:32:59.874Z,97419.16
2023-05-10T21:35:26.655Z,97412.28
2023-05-10T21:37:53.307Z,97409.28
2023-05-10T21:40:20.344Z,97409.38
2023-05-10T21:42:49.609Z,97401.81
2023-05-10T21:45:17.321Z,97409.19
2023-05-10T21:47:44.358Z,97407.66
2023-05-10T21:50:11.987Z,97402.06
2023-05-10T21:52:39.565Z,97406.88
2023-05-10T21:55:06.843Z,97405.16
2023-05-10T21:57:34.112Z,97407.56
2023-05-10T22:00:00.703Z,97404.25
2023-05-10T22:02:29.562Z,97406.63
2023-05-10T22:04:56.498Z,97400.34
2023-05-10T22:07:23.073Z,97395.47
2023-05-10T22:09:49.696Z,97393.41
2023-05-10T22:12:16.249Z,97390.03
2023-05-10T22:14:43.579Z,97389.41
2023-05-10T22:17:10.329Z,97384.84
2023-05-10T22:19:37.066Z,97378.69
2023-05-10T22:22:03.997Z,97380.56
2023-05-10T22:24:31.083Z,97384.13
2023-05-10T22:26:57.694Z,97389.41
2023-05-10T22:29:24.752Z,97388.47
2023-05-10T22:31:52.666Z,97393.50
2023-05-10T22:34:19.239Z,97380.28
2023-05-10T22:36:50.562Z,97385.63
2023-05-10T22:39:17.928Z,97379.44
2023-05-10T22:41:44.484Z,97390.13
2023-05-10T22:44:11.558Z,97381.53
2023-05-10T22:46:39.012Z,97384.69
2023-05-10T22:49:07.739Z,97386.31
2023-05-10T22:51:35.068Z,97382.38
2023-05-10T22:54:01.757Z,97389.47
2023-05-10T22:56:28.602Z,97384.22
2023-05-10T22:58:56.540Z,97384.09
2023-05-10T23:01:23.211Z,97374.66
2023-05-10T23:03:50.515Z,97386.31
2023-05-10T23:06:17.224Z,97385.31
2023-05-10T23:08:43.797Z,97386.94
2023-05-10T23:11:10.975Z,97380.84
2023-05-10T23:13:37.738Z,97372.81
2023-05-10T23:16:07.862Z,97378.59
2023-05-10T23:18:34.512Z,97379.97
2023-05-10T23:21:01.208Z,97383.00
2023-05-10T23:23:27.816Z,97384.53
2023-05-10T23:25:54.858Z,97390.31
2023-05-10T23:28:21.419Z,97383.09
2023-05-10T23:30:47.962Z,97394.09
2023-05-10T23:33:14.542Z,97393.84
2023-05-10T23:35:41.403Z,97392.50
2023-05-10T23:38:08.021Z,97388.03
2023-05-10T23:40:35.560Z,97394.19
2023-05-10T23:43:02.172Z,97387.81
2023-05-10T23:45:28.980Z,97388.63
2023-05-10T23:47:55.661Z,97381.19
2023-05-10T23:50:22.287Z,97385.63
2023-05-10T23:52:49.020Z,97383.53
2023-05-10T23:55:15.800Z,97382.69
2023-05-10T23:57:42.900Z,97376.63
